createdAt,value
2019-03-27T00:00:08.826Z,94.50
2019-03-27T00:02:37.062Z,94.70
2019-03-27T00:05:05.375Z,95.00
2019-03-27T00:07:33.602Z,95.10
2019-03-27T00:10:01.853Z,95.50
2019-03-27T00:12:31.354Z,95.30
2019-03-27T00:15:12.192Z,95.60
2019-03-27T00:17:31.851Z,95.80
2019-03-27T00:20:00.162Z,95.90
2019-03-27T00:22:28.607Z,96.00
2019-03-27T00:24:56.855Z,96.30
2019-03-27T00:27:25.435Z,96.40
2019-03-27T00:29:53.694Z,96.60
2019-03-27T00:32:21.962Z,97.00
2019-03-27T00:34:50.253Z,96.80
2019-03-27T00:37:18.498Z,97.20
2019-03-27T00:39:46.744Z,97.40
2019-03-27T00:42:15.146Z,97.60
2019-03-27T00:44:43.409Z,97.50
2019-03-27T00:47:11.634Z,97.80
2019-03-27T00:49:40.169Z,97.90
2019-03-27T00:52:08.416Z,97.90
2019-03-27T00:54:36.658Z,97.90
2019-03-27T00:57:04.901Z,97.90
2019-03-27T00:59:33.526Z,98.10
2019-03-27T01:02:02.192Z,98.20
2019-03-27T01:04:30.776Z,98.20
2019-03-27T01:06:59.274Z,98.20
2019-03-27T01:09:28.435Z,98.20
2019-03-27T01:11:56.951Z,98.00
2019-03-27T01:14:25.265Z,97.90
2019-03-27T01:16:55.299Z,97.80
2019-03-27T01:19:23.547Z,97.60
2019-03-27T01:21:52.690Z,97.70
2019-03-27T01:24:21.223Z,97.60
2019-03-27T01:26:49.452Z,97.50
2019-03-27T01:29:17.946Z,97.50
2019-03-27T01:31:46.467Z,97.40
2019-03-27T01:34:14.723Z,97.40
2019-03-27T01:36:43.235Z,97.40
2019-03-27T01:39:11.475Z,97.40
2019-03-27T01:41:39.722Z,97.30
2019-03-27T01:44:08.970Z,97.30
2019-03-27T01:46:37.475Z,97.20
2019-03-27T01:49:05.710Z,97.20
2019-03-27T01:51:34.259Z,97.10
2019-03-27T01:54:02.506Z,97.00
2019-03-27T01:56:30.756Z,97.10
2019-03-27T01:58:58.995Z,97.10
2019-03-27T02:01:27.579Z,97.10
2019-03-27T02:03:55.819Z,97.10
2019-03-27T02:06:24.073Z,97.20
2019-03-27T02:08:52.313Z,97.20
2019-03-27T02:11:20.571Z,97.30
2019-03-27T02:13:48.813Z,97.40
2019-03-27T02:16:17.361Z,97.40
2019-03-27T02:18:45.607Z,97.40
2019-03-27T02:21:14.129Z,97.50
2019-03-27T02:23:43.292Z,97.40
2019-03-27T02:26:11.543Z,97.40
2019-03-27T02:28:40.096Z,97.40
2019-03-27T02:31:08.687Z,97.40
2019-03-27T02:33:36.941Z,97.40
2019-03-27T02:36:06.301Z,97.50
2019-03-27T02:38:34.675Z,97.40
2019-03-27T02:41:03.368Z,97.50
2019-03-27T02:43:31.676Z,97.70
2019-03-27T02:45:59.936Z,97.40
2019-03-27T02:48:28.176Z,97.40
2019-03-27T02:50:56.432Z,97.30
2019-03-27T02:53:24.668Z,97.30
2019-03-27T02:55:52.936Z,97.30
2019-03-27T02:58:21.253Z,97.20
2019-03-27T03:00:49.512Z,97.20
2019-03-27T03:03:17.754Z,97.10
2019-03-27T03:05:46.004Z,97.10
2019-03-27T03:08:14.249Z,97.60
2019-03-27T03:10:45.503Z,97.20
2019-03-27T03:13:13.045Z,97.20
2019-03-27T03:15:41.630Z,97.20
2019-03-27T03:18:09.895Z,97.20
2019-03-27T03:20:38.136Z,97.30
2019-03-27T03:23:07.364Z,97.40
2019-03-27T03:25:35.611Z,97.50
2019-03-27T03:28:04.844Z,97.60
2019-03-27T03:30:33.375Z,97.70
2019-03-27T03:33:01.699Z,97.80
2019-03-27T03:35:30.333Z,97.80
2019-03-27T03:37:59.490Z,97.80
2019-03-27T03:40:27.813Z,98.00
2019-03-27T03:42:56.167Z,98.10
2019-03-27T03:45:24.479Z,98.10
2019-03-27T03:47:52.734Z,98.10
2019-03-27T03:50:39.839Z,98.10
2019-03-27T03:53:11.920Z,98.10
2019-03-27T03:55:40.747Z,98.20
2019-03-27T03:58:11.287Z,98.20
2019-03-27T04:00:39.684Z,98.20
2019-03-27T04:03:07.931Z,98.20
2019-03-27T04:05:36.514Z,98.20
2019-03-27T04:08:05.836Z,98.30
2019-03-27T04:10:34.080Z,98.40
2019-03-27T04:13:02.335Z,98.40
2019-03-27T04:15:30.858Z,98.50
2019-03-27T04:17:59.117Z,98.50
2019-03-27T04:20:27.357Z,98.50
2019-03-27T04:22:56.596Z,98.50
2019-03-27T04:25:24.848Z,98.50
2019-03-27T04:27:53.102Z,98.50
2019-03-27T04:30:21.344Z,98.50
2019-03-27T04:32:49.587Z,98.40
2019-03-27T04:35:17.846Z,98.60
2019-03-27T04:37:48.256Z,98.60
2019-03-27T04:40:16.841Z,98.60
2019-03-27T04:42:46.424Z,98.70
2019-03-27T04:45:14.683Z,98.80
2019-03-27T04:47:43.964Z,98.90
2019-03-27T04:50:12.216Z,99.00
2019-03-27T04:52:40.481Z,99.00
2019-03-27T04:55:08.997Z,99.20
2019-03-27T04:57:37.567Z,99.30
2019-03-27T05:00:07.252Z,99.20
2019-03-27T05:02:35.880Z,99.30
2019-03-27T05:05:06.543Z,99.30
2019-03-27T05:07:35.771Z,99.40
2019-03-27T05:10:04.959Z,99.30
2019-03-27T05:12:33.211Z,99.30
2019-03-27T05:15:01.699Z,99.30
2019-03-27T05:17:29.955Z,99.30
2019-03-27T05:19:58.564Z,99.20
2019-03-27T05:22:26.823Z,99.20
2019-03-27T05:24:55.063Z,99.30
2019-03-27T05:27:23.317Z,99.30
2019-03-27T05:29:51.547Z,99.30
2019-03-27T05:32:19.813Z,99.30
2019-03-27T05:34:48.051Z,99.40
2019-03-27T05:37:16.293Z,99.30
2019-03-27T05:39:44.545Z,99.20
2019-03-27T05:42:12.788Z,99.30
2019-03-27T05:44:41.957Z,99.40
2019-03-27T05:47:10.190Z,99.30
2019-03-27T05:49:38.448Z,99.30
2019-03-27T05:52:06.691Z,99.20
2019-03-27T05:54:34.940Z,99.00
2019-03-27T05:57:03.468Z,99.00
2019-03-27T05:59:31.734Z,99.00
2019-03-27T06:01:59.976Z,99.00
2019-03-27T06:04:28.227Z,99.00
2019-03-27T06:06:56.476Z,98.70
2019-03-27T06:09:25.087Z,98.90
2019-03-27T06:11:53.580Z,98.90
2019-03-27T06:14:22.148Z,98.70
2019-03-27T06:16:50.856Z,98.70
2019-03-27T06:19:19.427Z,98.70
2019-03-27T06:21:48.012Z,98.70
2019-03-27T06:24:16.326Z,98.60
2019-03-27T06:26:44.583Z,98.50
2019-03-27T06:29:15.871Z,98.40
2019-03-27T06:31:43.772Z,98.30
2019-03-27T06:34:12.285Z,98.30
2019-03-27T06:36:40.531Z,98.20
2019-03-27T06:39:09.053Z,98.30
2019-03-27T06:41:37.309Z,98.20
2019-03-27T06:44:05.556Z,98.10
2019-03-27T06:46:34.097Z,98.10
2019-03-27T06:49:02.375Z,98.20
2019-03-27T06:51:39.821Z,97.90
2019-03-27T06:54:02.655Z,97.70
2019-03-27T06:56:31.287Z,97.60
2019-03-27T06:58:59.628Z,97.40
2019-03-27T07:01:28.186Z,97.40
2019-03-27T07:04:09.586Z,97.30
2019-03-27T07:06:27.095Z,97.10
2019-03-27T07:08:55.339Z,97.40
2019-03-27T07:11:25.597Z,97.40
2019-03-27T07:13:53.916Z,96.90
2019-03-27T07:16:22.471Z,96.60
2019-03-27T07:18:51.061Z,96.80
2019-03-27T07:21:19.644Z,96.70
2019-03-27T07:23:48.279Z,96.50
2019-03-27T07:26:16.597Z,96.40
2019-03-27T07:28:45.103Z,96.10
2019-03-27T07:31:13.687Z,96.00
2019-03-27T07:33:41.976Z,96.30
2019-03-27T07:36:10.223Z,96.10
2019-03-27T07:38:38.739Z,96.10
2019-03-27T07:41:08.247Z,96.10
2019-03-27T07:43:36.833Z,95.90
2019-03-27T07:46:05.431Z,95.80
2019-03-27T07:48:34.024Z,95.60
2019-03-27T07:51:02.599Z,95.50
2019-03-27T07:53:31.031Z,95.40
2019-03-27T07:55:59.267Z,95.40
2019-03-27T07:58:27.519Z,95.30
2019-03-27T08:00:55.752Z,95.00
2019-03-27T08:03:25.248Z,94.70
2019-03-27T08:05:53.493Z,94.60
2019-03-27T08:08:21.743Z,94.30
2019-03-27T08:10:49.989Z,94.40
2019-03-27T08:13:19.140Z,94.30
2019-03-27T08:15:47.390Z,94.10
2019-03-27T08:18:15.649Z,94.30
2019-03-27T08:20:45.444Z,94.20
2019-03-27T08:23:14.031Z,94.10
2019-03-27T08:25:42.652Z,93.60
2019-03-27T08:28:11.208Z,93.30
2019-03-27T08:30:39.796Z,92.90
2019-03-27T08:33:08.039Z,93.00
2019-03-27T08:35:36.292Z,92.40
2019-03-27T08:38:04.535Z,91.80
2019-03-27T08:40:33.128Z,91.90
2019-03-27T08:43:01.712Z,91.80
2019-03-27T08:45:30.303Z,91.50
2019-03-27T08:47:58.891Z,91.40
2019-03-27T08:50:28.065Z,91.30
2019-03-27T08:52:56.316Z,90.50
2019-03-27T08:55:24.849Z,90.50
2019-03-27T08:57:53.098Z,90.30
2019-03-27T09:00:27.421Z,90.00
2019-03-27T09:02:55.668Z,89.00
2019-03-27T09:05:23.913Z,89.30
2019-03-27T09:07:52.172Z,89.00
2019-03-27T09:10:20.408Z,88.50
2019-03-27T09:12:48.699Z,88.10
2019-03-27T09:15:16.970Z,87.30
2019-03-27T09:17:45.224Z,86.40
2019-03-27T09:20:13.800Z,87.20
2019-03-27T09:22:42.387Z,86.40
2019-03-27T09:25:10.628Z,86.90
2019-03-27T09:27:39.156Z,87.30
2019-03-27T09:30:10.825Z,87.20
2019-03-27T09:32:39.422Z,86.80
2019-03-27T09:35:07.655Z,86.20
2019-03-27T09:37:35.908Z,85.40
2019-03-27T09:40:05.183Z,84.60
2019-03-27T09:42:33.753Z,85.40
2019-03-27T09:45:01.988Z,85.10
2019-03-27T09:47:30.255Z,84.40
2019-03-27T09:49:58.518Z,84.40
2019-03-27T09:52:26.763Z,83.80
2019-03-27T09:54:55.012Z,83.80
2019-03-27T09:57:23.260Z,84.90
2019-03-27T09:59:51.539Z,84.50
2019-03-27T10:02:19.846Z,83.30
2019-03-27T10:04:48.981Z,83.90
2019-03-27T10:07:17.589Z,84.70
2019-03-27T10:09:50.105Z,83.50
2019-03-27T10:12:16.725Z,82.20
2019-03-27T10:14:47.564Z,80.70
2019-03-27T10:17:14.964Z,80.70
2019-03-27T10:19:43.223Z,81.50
2019-03-27T10:22:11.772Z,80.90
2019-03-27T10:24:40.356Z,80.80
2019-03-27T10:27:08.619Z,80.60
2019-03-27T10:29:37.223Z,79.00
2019-03-27T10:32:05.815Z,79.40
2019-03-27T10:34:34.055Z,77.40
2019-03-27T10:37:02.310Z,78.30
2019-03-27T10:39:30.804Z,78.40
2019-03-27T10:41:59.055Z,78.00
2019-03-27T10:44:27.295Z,77.70
2019-03-27T10:46:55.552Z,77.30
2019-03-27T10:49:24.088Z,77.30
2019-03-27T10:51:52.340Z,77.30
2019-03-27T10:54:20.577Z,77.30
2019-03-27T10:56:49.133Z,77.50
2019-03-27T10:59:17.718Z,77.70
2019-03-27T11:01:45.971Z,76.90
2019-03-27T11:04:14.496Z,76.40
2019-03-27T11:06:43.072Z,76.20
2019-03-27T11:09:11.663Z,76.10
2019-03-27T11:11:40.252Z,75.60
2019-03-27T11:14:08.839Z,75.40
2019-03-27T11:16:37.335Z,75.10
2019-03-27T11:19:05.913Z,72.40
2019-03-27T11:21:34.169Z,72.80
2019-03-27T11:24:02.694Z,74.50
2019-03-27T11:26:30.956Z,72.50
2019-03-27T11:28:59.205Z,73.60
2019-03-27T11:31:27.728Z,73.30
2019-03-27T11:33:56.006Z,73.70
2019-03-27T11:36:24.324Z,73.30
2019-03-27T11:38:53.904Z,73.20
2019-03-27T11:41:23.059Z,73.90
2019-03-27T11:43:55.041Z,72.40
2019-03-27T11:46:22.186Z,73.20
2019-03-27T11:48:50.444Z,72.30
2019-03-27T11:51:18.984Z,71.90
2019-03-27T11:53:48.407Z,71.70
2019-03-27T11:56:18.921Z,71.50
2019-03-27T11:58:48.428Z,72.10
2019-03-27T12:01:16.683Z,72.30
2019-03-27T12:03:44.928Z,72.30
2019-03-27T12:06:13.192Z,70.30
2019-03-27T12:08:41.519Z,69.70
2019-03-27T12:11:09.755Z,71.10
2019-03-27T12:13:38.311Z,70.00
2019-03-27T12:16:06.563Z,70.30
2019-03-27T12:18:35.083Z,70.40
2019-03-27T12:21:03.676Z,70.20
2019-03-27T12:23:32.263Z,69.60
2019-03-27T12:26:00.512Z,69.30
2019-03-27T12:28:28.821Z,69.10
2019-03-27T12:30:57.449Z,69.20
2019-03-27T12:33:26.102Z,68.90
2019-03-27T12:35:54.686Z,69.10
2019-03-27T12:38:22.933Z,67.40
2019-03-27T12:40:51.179Z,67.80
2019-03-27T12:43:19.752Z,67.40
2019-03-27T12:45:48.319Z,67.40
2019-03-27T12:48:16.571Z,66.80
2019-03-27T12:50:45.101Z,67.40
2019-03-27T12:53:13.675Z,66.80
2019-03-27T12:55:41.943Z,67.70
2019-03-27T12:58:11.902Z,67.10
2019-03-27T13:00:40.277Z,67.20
2019-03-27T13:03:08.525Z,67.20
2019-03-27T13:05:37.140Z,68.20
2019-03-27T13:08:05.413Z,68.10
2019-03-27T13:10:33.672Z,67.80
2019-03-27T13:13:01.927Z,67.40
2019-03-27T13:15:30.187Z,67.60
2019-03-27T13:17:58.740Z,65.60
2019-03-27T13:20:26.978Z,67.20
2019-03-27T13:22:55.527Z,67.60
2019-03-27T13:25:24.112Z,65.30
2019-03-27T13:27:52.361Z,65.70
2019-03-27T13:30:20.773Z,62.90
2019-03-27T13:32:49.335Z,61.90
2019-03-27T13:35:17.930Z,62.30
2019-03-27T13:37:46.183Z,63.50
2019-03-27T13:40:14.428Z,63.20
2019-03-27T13:42:42.696Z,62.50
2019-03-27T13:45:10.931Z,63.60
2019-03-27T13:47:39.549Z,63.80
2019-03-27T13:50:13.239Z,62.90
2019-03-27T13:52:41.733Z,63.50
2019-03-27T13:55:10.047Z,62.50
2019-03-27T13:57:38.303Z,61.40
2019-03-27T14:00:08.528Z,58.60
2019-03-27T14:02:36.841Z,58.90
2019-03-27T14:05:05.945Z,60.70
2019-03-27T14:07:34.481Z,61.40
2019-03-27T14:10:02.713Z,62.60
2019-03-27T14:12:31.248Z,62.90
2019-03-27T14:14:59.490Z,62.40
2019-03-27T14:17:27.755Z,61.90
2019-03-27T14:19:56.963Z,62.50
2019-03-27T14:22:25.232Z,61.80
2019-03-27T14:24:53.772Z,62.70
2019-03-27T14:27:22.360Z,63.30
2019-03-27T14:29:50.609Z,63.50
2019-03-27T14:32:18.865Z,62.90
2019-03-27T14:34:47.404Z,62.80
2019-03-27T14:37:15.667Z,63.10
2019-03-27T14:39:43.899Z,62.60
2019-03-27T14:42:12.468Z,63.20
2019-03-27T14:44:41.051Z,63.80
2019-03-27T14:47:09.637Z,63.60
2019-03-27T14:49:38.221Z,64.30
2019-03-27T14:52:08.495Z,64.50
2019-03-27T14:54:36.440Z,64.50
2019-03-27T14:57:05.013Z,63.80
2019-03-27T14:59:33.595Z,64.90
2019-03-27T15:02:02.100Z,65.70
2019-03-27T15:04:30.674Z,65.50
2019-03-27T15:06:58.923Z,65.50
2019-03-27T15:09:27.435Z,66.10
2019-03-27T15:11:55.686Z,66.30
2019-03-27T15:14:23.933Z,66.70
2019-03-27T15:16:52.476Z,67.00
2019-03-27T15:19:20.736Z,66.70
2019-03-27T15:21:49.256Z,67.30
2019-03-27T15:24:20.453Z,67.00
2019-03-27T15:26:47.841Z,66.80
2019-03-27T15:29:16.092Z,67.60
2019-03-27T15:31:44.335Z,67.40
2019-03-27T15:34:12.587Z,67.20
2019-03-27T15:36:40.831Z,68.20
2019-03-27T15:39:09.093Z,70.20
2019-03-27T15:41:37.640Z,71.90
2019-03-27T15:44:06.247Z,74.30
2019-03-27T15:46:34.484Z,73.90
2019-03-27T15:49:02.749Z,73.90
2019-03-27T15:51:31.075Z,73.70
2019-03-27T15:53:59.315Z,73.20
2019-03-27T15:56:27.564Z,73.40
2019-03-27T15:58:56.448Z,73.50
2019-03-27T16:01:25.222Z,73.60
2019-03-27T16:03:53.807Z,73.50
2019-03-27T16:06:22.401Z,73.70
2019-03-27T16:08:50.659Z,73.90
2019-03-27T16:11:19.167Z,73.40
2019-03-27T16:13:47.427Z,73.80
2019-03-27T16:16:15.928Z,74.40
2019-03-27T16:18:44.187Z,74.50
2019-03-27T16:21:12.711Z,75.20
2019-03-27T16:23:40.972Z,74.60
2019-03-27T16:26:09.236Z,74.00
2019-03-27T16:28:37.496Z,74.60
2019-03-27T16:31:05.820Z,73.90
2019-03-27T16:33:34.315Z,74.30
2019-03-27T16:36:02.579Z,74.70
2019-03-27T16:38:30.844Z,75.10
2019-03-27T16:40:59.099Z,76.10
2019-03-27T16:43:27.728Z,76.10
2019-03-27T16:45:56.316Z,76.40
2019-03-27T16:48:24.578Z,76.30
2019-03-27T16:50:53.084Z,76.80
2019-03-27T16:53:21.667Z,77.00
2019-03-27T16:55:49.914Z,77.00
2019-03-27T16:58:18.443Z,77.20
2019-03-27T17:00:46.683Z,78.50
2019-03-27T17:03:14.934Z,78.30
2019-03-27T17:05:53.388Z,78.70
2019-03-27T17:08:13.194Z,79.10
2019-03-27T17:10:41.431Z,79.30
2019-03-27T17:13:10.683Z,80.00
2019-03-27T17:15:38.923Z,81.40
2019-03-27T17:18:07.183Z,81.00
2019-03-27T17:20:35.427Z,81.90
2019-03-27T17:23:17.050Z,82.20
2019-03-27T17:25:33.676Z,82.70
2019-03-27T17:28:02.307Z,83.30
2019-03-27T17:30:31.949Z,84.20
2019-03-27T17:33:00.612Z,85.00
2019-03-27T17:35:28.864Z,85.70
2019-03-27T17:37:57.483Z,86.30
2019-03-27T17:40:25.963Z,86.70
2019-03-27T17:42:54.230Z,87.30
2019-03-27T17:45:22.480Z,87.50
2019-03-27T17:47:50.719Z,87.80
2019-03-27T17:50:19.321Z,88.20
2019-03-27T17:52:47.611Z,88.40
2019-03-27T17:55:15.874Z,88.30
2019-03-27T17:57:44.443Z,88.20
2019-03-27T18:00:14.799Z,88.40
2019-03-27T18:02:43.047Z,88.80
2019-03-27T18:05:11.305Z,88.50
2019-03-27T18:07:39.547Z,88.70
2019-03-27T18:10:08.095Z,88.90
2019-03-27T18:12:36.337Z,89.00
2019-03-27T18:15:06.529Z,89.20
2019-03-27T18:17:34.771Z,89.00
2019-03-27T18:20:03.011Z,89.20
2019-03-27T18:22:31.255Z,89.30
2019-03-27T18:24:59.507Z,89.20
2019-03-27T18:27:28.020Z,89.20
2019-03-27T18:29:56.271Z,89.40
2019-03-27T18:32:24.500Z,89.50
2019-03-27T18:34:53.052Z,89.70
2019-03-27T18:37:21.319Z,90.00
2019-03-27T18:39:49.568Z,90.10
2019-03-27T18:42:18.095Z,90.30
2019-03-27T18:44:46.688Z,90.40
2019-03-27T18:47:15.272Z,90.40
2019-03-27T18:49:43.510Z,90.50
2019-03-27T18:52:12.012Z,90.80
2019-03-27T18:54:40.253Z,91.10
2019-03-27T18:57:08.514Z,91.20
2019-03-27T18:59:36.743Z,91.40
2019-03-27T19:02:05.274Z,91.50
2019-03-27T19:04:34.672Z,91.60
2019-03-27T19:07:02.939Z,91.70
2019-03-27T19:09:31.550Z,91.70
2019-03-27T19:11:59.799Z,92.00
2019-03-27T19:14:28.043Z,92.00
2019-03-27T19:16:56.307Z,92.10
2019-03-27T19:19:24.867Z,92.20
2019-03-27T19:21:54.061Z,92.40
2019-03-27T19:24:22.659Z,92.50
2019-03-27T19:26:50.909Z,93.10
2019-03-27T19:29:19.235Z,92.90
2019-03-27T19:31:47.476Z,93.00
2019-03-27T19:34:15.735Z,93.30
2019-03-27T19:36:44.363Z,93.80
2019-03-27T19:39:12.956Z,94.30
2019-03-27T19:41:41.267Z,95.10
2019-03-27T19:44:10.045Z,95.40
2019-03-27T19:46:38.365Z,96.00
2019-03-27T19:49:06.616Z,96.70
2019-03-27T19:51:34.851Z,97.20
2019-03-27T19:54:03.471Z,97.50
2019-03-27T19:56:32.067Z,97.80
2019-03-27T19:59:00.334Z,98.00
2019-03-27T20:01:29.015Z,98.10
2019-03-27T20:03:57.279Z,98.20
2019-03-27T20:06:25.828Z,98.50
2019-03-27T20:08:56.681Z,98.50
2019-03-27T20:11:24.545Z,98.80
2019-03-27T20:13:53.181Z,98.80
2019-03-27T20:16:21.453Z,98.90
2019-03-27T20:18:49.710Z,99.00
2019-03-27T20:21:17.952Z,99.00
2019-03-27T20:23:46.203Z,99.10
2019-03-27T20:26:14.447Z,99.20
2019-03-27T20:28:42.712Z,99.30
2019-03-27T20:31:10.947Z,99.30
2019-03-27T20:33:39.190Z,99.40
2019-03-27T20:36:07.716Z,99.50
2019-03-27T20:38:35.965Z,99.70
2019-03-27T20:41:04.211Z,99.80
2019-03-27T20:43:32.456Z,99.90
2019-03-27T20:46:00.712Z,99.90
2019-03-27T20:48:28.969Z,99.90
2019-03-27T20:50:57.501Z,99.90
2019-03-27T20:53:25.748Z,99.90
2019-03-27T20:55:54.004Z,99.90
2019-03-27T20:58:22.543Z,99.90
2019-03-27T21:00:51.133Z,99.90
2019-03-27T21:03:19.398Z,99.90
2019-03-27T21:05:47.896Z,99.90
2019-03-27T21:08:16.163Z,99.90
2019-03-27T21:10:44.402Z,99.90
2019-03-27T21:13:12.954Z,99.90
2019-03-27T21:15:41.550Z,99.90
2019-03-27T21:18:09.800Z,99.90
2019-03-27T21:20:38.067Z,99.90
2019-03-27T21:23:06.315Z,99.90
2019-03-27T21:25:34.995Z,99.90
2019-03-27T21:28:03.548Z,99.90
2019-03-27T21:30:32.143Z,99.90
2019-03-27T21:33:00.402Z,99.90
2019-03-27T21:35:29.024Z,99.90
2019-03-27T21:37:57.272Z,99.90
2019-03-27T21:40:25.884Z,99.90
2019-03-27T21:42:54.130Z,99.90
2019-03-27T21:45:22.383Z,99.90
2019-03-27T21:47:50.619Z,99.90
2019-03-27T21:50:19.199Z,99.90
2019-03-27T21:52:59.850Z,99.90
2019-03-27T21:55:22.863Z,99.90
2019-03-27T21:57:47.396Z,99.90
2019-03-27T22:00:18.987Z,99.90
2019-03-27T22:02:48.608Z,99.90
2019-03-27T22:05:16.875Z,99.90
2019-03-27T22:07:45.123Z,99.90
2019-03-27T22:10:13.640Z,99.90
2019-03-27T22:12:41.904Z,99.90
2019-03-27T22:15:10.155Z,99.90
2019-03-27T22:17:38.683Z,99.90
2019-03-27T22:20:07.472Z,99.90
2019-03-27T22:22:36.083Z,99.90
2019-03-27T22:25:06.792Z,99.90
2019-03-27T22:27:35.025Z,99.90
2019-03-27T22:30:04.317Z,99.90
2019-03-27T22:32:32.919Z,99.90
2019-03-27T22:35:01.212Z,99.90
2019-03-27T22:37:29.459Z,99.90
2019-03-27T22:39:58.025Z,99.90
2019-03-27T22:42:26.279Z,99.90
2019-03-27T22:44:54.523Z,99.90
2019-03-27T22:47:23.036Z,99.90
2019-03-27T22:49:51.355Z,99.90
2019-03-27T22:52:19.603Z,99.90
2019-03-27T22:54:47.848Z,99.90
2019-03-27T22:57:16.492Z,99.90
2019-03-27T22:59:45.083Z,99.90
2019-03-27T23:02:16.539Z,99.90
2019-03-27T23:04:44.788Z,99.90
2019-03-27T23:07:13.344Z,99.90
2019-03-27T23:09:41.917Z,99.90
2019-03-27T23:12:10.253Z,99.90
2019-03-27T23:14:38.600Z,99.90
2019-03-27T23:17:07.140Z,99.90
2019-03-27T23:19:35.636Z,99.90
2019-03-27T23:22:04.149Z,99.90
2019-03-27T23:24:32.459Z,99.90
2019-03-27T23:27:00.983Z,99.90
2019-03-27T23:29:29.569Z,99.90
2019-03-27T23:31:57.803Z,99.90
2019-03-27T23:34:26.333Z,99.90
2019-03-27T23:36:54.935Z,99.90
2019-03-27T23:39:24.097Z,99.90
2019-03-27T23:41:52.488Z,99.90
2019-03-27T23:44:21.096Z,99.90
2019-03-27T23:46:49.334Z,99.90
2019-03-27T23:49:17.863Z,99.90
2019-03-27T23:51:46.447Z,99.90
2019-03-27T23:54:14.714Z,99.90
2019-03-27T23:56:42.955Z,99.90
2019-03-27T23:59:11.199Z,99.90
